logo
Search for airport 
image banner adimage banner adimage banner ad
image banner ad

ED1718 - Borna Sana Klinikum

Located in Borna, Germany

ICAO - , IATA -

Data provided by Airmate  

General information

Coordinates: N51°8'8" E12°30'23"
Elevation is 520 feet MSL.
 
View others Airports in Saxony

Operational data

Special qualification required
Current time UTC:
Current local time:
Weather at : EDAC - Leipzig-Altenburg Airport ( 17 km )
METAR: EDAC 280150Z AUTO 17004KT 9999 // FEW047/// OVC077/// 15/15 Q1015
View NOTAMs / SUP AIP / TFR affecting this airport [VIEW]
Communications frequencies: [VIEW]

Runways:

Airport contact information

Address: Borna Germany

Satellite view of ED1718